sensor_id;sensor_type;location;lat;lon;timestamp;P1;durP1;ratioP1;P2;durP2;ratioP2
44987;SDS011;35735;52.226;21.254;2022-08-20T00:01:19;9.90;;;5.12;;
44987;SDS011;35735;52.226;21.254;2022-08-20T00:06:20;10.63;;;5.20;;
44987;SDS011;35735;52.226;21.254;2022-08-20T00:11:23;9.18;;;4.93;;
44987;SDS011;35735;52.226;21.254;2022-08-20T00:16:27;9.10;;;4.43;;
44987;SDS011;35735;52.226;21.254;2022-08-20T00:21:31;8.35;;;4.70;;
44987;SDS011;35735;52.226;21.254;2022-08-20T00:26:32;8.57;;;5.10;;
44987;SDS011;35735;52.226;21.254;2022-08-20T00:31:32;8.77;;;5.65;;
44987;SDS011;35735;52.226;21.254;2022-08-20T00:36:33;10.50;;;5.10;;
44987;SDS011;35735;52.226;21.254;2022-08-20T00:41:33;9.75;;;4.90;;
44987;SDS011;35735;52.226;21.254;2022-08-20T00:46:35;12.13;;;5.20;;
44987;SDS011;35735;52.226;21.254;2022-08-20T00:51:40;8.23;;;5.00;;
44987;SDS011;35735;52.226;21.254;2022-08-20T00:56:58;7.37;;;5.35;;
44987;SDS011;35735;52.226;21.254;2022-08-20T01:02:04;10.57;;;5.35;;
44987;SDS011;35735;52.226;21.254;2022-08-20T01:07:09;13.55;;;5.47;;
44987;SDS011;35735;52.226;21.254;2022-08-20T01:12:09;9.65;;;5.15;;
44987;SDS011;35735;52.226;21.254;2022-08-20T01:17:11;6.80;;;5.55;;
44987;SDS011;35735;52.226;21.254;2022-08-20T01:22:20;9.65;;;5.10;;
44987;SDS011;35735;52.226;21.254;2022-08-20T01:27:39;7.47;;;5.25;;
44987;SDS011;35735;52.226;21.254;2022-08-20T01:32:40;11.60;;;5.53;;
44987;SDS011;35735;52.226;21.254;2022-08-20T01:37:41;8.20;;;5.53;;
44987;SDS011;35735;52.226;21.254;2022-08-20T01:42:43;6.70;;;5.62;;
44987;SDS011;35735;52.226;21.254;2022-08-20T01:47:47;15.95;;;5.20;;
44987;SDS011;35735;52.226;21.254;2022-08-20T01:52:50;9.10;;;5.30;;
44987;SDS011;35735;52.226;21.254;2022-08-20T01:58:18;8.48;;;5.87;;
44987;SDS011;35735;52.226;21.254;2022-08-20T02:03:19;8.63;;;5.72;;
44987;SDS011;35735;52.226;21.254;2022-08-20T02:08:20;8.80;;;6.03;;
44987;SDS011;35735;52.226;21.254;2022-08-20T02:13:21;12.80;;;5.50;;
44987;SDS011;35735;52.226;21.254;2022-08-20T02:18:21;11.40;;;6.03;;
44987;SDS011;35735;52.226;21.254;2022-08-20T02:23:22;11.52;;;6.28;;
44987;SDS011;35735;52.226;21.254;2022-08-20T02:28:22;9.88;;;5.57;;
44987;SDS011;35735;52.226;21.254;2022-08-20T02:33:23;12.48;;;6.32;;
44987;SDS011;35735;52.226;21.254;2022-08-20T02:38:23;11.95;;;6.10;;
44987;SDS011;35735;52.226;21.254;2022-08-20T02:43:24;12.15;;;6.65;;
44987;SDS011;35735;52.226;21.254;2022-08-20T02:48:25;10.25;;;6.25;;
44987;SDS011;35735;52.226;21.254;2022-08-20T02:53:26;10.80;;;6.18;;
44987;SDS011;35735;52.226;21.254;2022-08-20T02:58:31;9.05;;;6.25;;
44987;SDS011;35735;52.226;21.254;2022-08-20T03:03:32;8.93;;;6.47;;
44987;SDS011;35735;52.226;21.254;2022-08-20T03:08:33;10.02;;;6.18;;
44987;SDS011;35735;52.226;21.254;2022-08-20T03:13:34;9.05;;;6.15;;
44987;SDS011;35735;52.226;21.254;2022-08-20T03:18:39;8.63;;;6.18;;
44987;SDS011;35735;52.226;21.254;2022-08-20T03:23:43;12.37;;;6.78;;
44987;SDS011;35735;52.226;21.254;2022-08-20T03:28:44;14.80;;;6.50;;
44987;SDS011;35735;52.226;21.254;2022-08-20T03:33:45;15.25;;;6.87;;
44987;SDS011;35735;52.226;21.254;2022-08-20T03:38:45;8.13;;;5.55;;
44987;SDS011;35735;52.226;21.254;2022-08-20T03:43:46;11.32;;;6.65;;
44987;SDS011;35735;52.226;21.254;2022-08-20T03:48:46;11.10;;;6.53;;
44987;SDS011;35735;52.226;21.254;2022-08-20T03:53:47;13.35;;;6.57;;
44987;SDS011;35735;52.226;21.254;2022-08-20T03:58:47;8.45;;;6.35;;
44987;SDS011;35735;52.226;21.254;2022-08-20T04:03:48;8.32;;;6.62;;
44987;SDS011;35735;52.226;21.254;2022-08-20T04:08:49;13.02;;;7.18;;
44987;SDS011;35735;52.226;21.254;2022-08-20T04:13:49;13.52;;;6.30;;
44987;SDS011;35735;52.226;21.254;2022-08-20T04:18:50;10.80;;;7.22;;
44987;SDS011;35735;52.226;21.254;2022-08-20T04:23:50;11.98;;;7.40;;
44987;SDS011;35735;52.226;21.254;2022-08-20T04:28:51;12.10;;;6.93;;
44987;SDS011;35735;52.226;21.254;2022-08-20T04:33:52;11.88;;;7.20;;
44987;SDS011;35735;52.226;21.254;2022-08-20T04:38:52;10.65;;;6.72;;
44987;SDS011;35735;52.226;21.254;2022-08-20T04:43:53;11.60;;;7.32;;
44987;SDS011;35735;52.226;21.254;2022-08-20T04:48:55;14.25;;;7.30;;
44987;SDS011;35735;52.226;21.254;2022-08-20T04:53:56;9.75;;;6.78;;
44987;SDS011;35735;52.226;21.254;2022-08-20T04:58:58;14.68;;;6.78;;
44987;SDS011;35735;52.226;21.254;2022-08-20T05:04:00;12.90;;;6.93;;
44987;SDS011;35735;52.226;21.254;2022-08-20T05:09:00;12.98;;;6.53;;
44987;SDS011;35735;52.226;21.254;2022-08-20T05:14:01;13.18;;;6.57;;
44987;SDS011;35735;52.226;21.254;2022-08-20T05:19:06;12.82;;;6.37;;
44987;SDS011;35735;52.226;21.254;2022-08-20T05:24:12;13.85;;;6.62;;
44987;SDS011;35735;52.226;21.254;2022-08-20T05:29:12;14.30;;;7.15;;
44987;SDS011;35735;52.226;21.254;2022-08-20T05:34:13;11.18;;;6.57;;
44987;SDS011;35735;52.226;21.254;2022-08-20T05:39:14;8.88;;;7.03;;
44987;SDS011;35735;52.226;21.254;2022-08-20T05:44:16;13.13;;;7.30;;
44987;SDS011;35735;52.226;21.254;2022-08-20T05:49:18;14.20;;;7.57;;
44987;SDS011;35735;52.226;21.254;2022-08-20T05:54:20;15.45;;;8.20;;
44987;SDS011;35735;52.226;21.254;2022-08-20T05:59:21;14.45;;;7.20;;
44987;SDS011;35735;52.226;21.254;2022-08-20T06:04:25;14.73;;;6.70;;
44987;SDS011;35735;52.226;21.254;2022-08-20T06:09:25;11.35;;;7.25;;
44987;SDS011;35735;52.226;21.254;2022-08-20T06:14:26;12.65;;;6.45;;
44987;SDS011;35735;52.226;21.254;2022-08-20T06:19:27;13.00;;;7.37;;
44987;SDS011;35735;52.226;21.254;2022-08-20T06:24:27;12.55;;;7.20;;
44987;SDS011;35735;52.226;21.254;2022-08-20T06:29:28;18.70;;;7.28;;
44987;SDS011;35735;52.226;21.254;2022-08-20T06:34:29;14.85;;;7.05;;
44987;SDS011;35735;52.226;21.254;2022-08-20T06:39:29;10.65;;;7.37;;
44987;SDS011;35735;52.226;21.254;2022-08-20T06:44:30;11.77;;;7.37;;
44987;SDS011;35735;52.226;21.254;2022-08-20T06:49:33;15.25;;;7.40;;
44987;SDS011;35735;52.226;21.254;2022-08-20T06:54:35;9.13;;;7.32;;
44987;SDS011;35735;52.226;21.254;2022-08-20T06:59:36;12.35;;;7.40;;
44987;SDS011;35735;52.226;21.254;2022-08-20T07:04:36;13.15;;;7.50;;
44987;SDS011;35735;52.226;21.254;2022-08-20T07:09:37;13.07;;;7.12;;
44987;SDS011;35735;52.226;21.254;2022-08-20T07:14:37;11.90;;;7.55;;
44987;SDS011;35735;52.226;21.254;2022-08-20T07:19:38;14.90;;;8.02;;
44987;SDS011;35735;52.226;21.254;2022-08-20T07:24:39;9.70;;;7.35;;
44987;SDS011;35735;52.226;21.254;2022-08-20T07:29:39;13.80;;;6.80;;
44987;SDS011;35735;52.226;21.254;2022-08-20T07:34:40;16.58;;;7.50;;
44987;SDS011;35735;52.226;21.254;2022-08-20T07:39:40;11.90;;;7.53;;
44987;SDS011;35735;52.226;21.254;2022-08-20T07:44:41;13.00;;;7.78;;
44987;SDS011;35735;52.226;21.254;2022-08-20T07:49:42;11.57;;;7.45;;
44987;SDS011;35735;52.226;21.254;2022-08-20T07:54:42;11.48;;;7.68;;
44987;SDS011;35735;52.226;21.254;2022-08-20T07:59:43;10.00;;;7.28;;
44987;SDS011;35735;52.226;21.254;2022-08-20T08:04:43;14.43;;;6.47;;
44987;SDS011;35735;52.226;21.254;2022-08-20T08:09:44;13.60;;;7.10;;
44987;SDS011;35735;52.226;21.254;2022-08-20T08:14:46;9.90;;;6.50;;
44987;SDS011;35735;52.226;21.254;2022-08-20T08:19:48;14.85;;;7.78;;
44987;SDS011;35735;52.226;21.254;2022-08-20T08:24:50;9.82;;;6.65;;
44987;SDS011;35735;52.226;21.254;2022-08-20T08:29:50;10.05;;;6.35;;
44987;SDS011;35735;52.226;21.254;2022-08-20T08:34:51;9.43;;;6.85;;
44987;SDS011;35735;52.226;21.254;2022-08-20T08:39:51;15.32;;;7.22;;
44987;SDS011;35735;52.226;21.254;2022-08-20T08:44:52;11.68;;;6.35;;
44987;SDS011;35735;52.226;21.254;2022-08-20T08:49:53;13.27;;;5.90;;
44987;SDS011;35735;52.226;21.254;2022-08-20T08:54:56;12.75;;;6.47;;
44987;SDS011;35735;52.226;21.254;2022-08-20T09:00:03;10.80;;;6.37;;
44987;SDS011;35735;52.226;21.254;2022-08-20T09:05:13;11.45;;;5.55;;
44987;SDS011;35735;52.226;21.254;2022-08-20T09:10:15;14.77;;;7.03;;
44987;SDS011;35735;52.226;21.254;2022-08-20T09:15:16;10.60;;;5.82;;
44987;SDS011;35735;52.226;21.254;2022-08-20T09:20:17;9.50;;;5.70;;
44987;SDS011;35735;52.226;21.254;2022-08-20T09:25:18;10.57;;;5.75;;
44987;SDS011;35735;52.226;21.254;2022-08-20T09:30:19;15.20;;;5.93;;
44987;SDS011;35735;52.226;21.254;2022-08-20T09:35:19;9.48;;;5.70;;
44987;SDS011;35735;52.226;21.254;2022-08-20T09:40:20;11.10;;;5.78;;
44987;SDS011;35735;52.226;21.254;2022-08-20T09:45:21;9.63;;;5.07;;
44987;SDS011;35735;52.226;21.254;2022-08-20T09:50:22;8.48;;;5.37;;
44987;SDS011;35735;52.226;21.254;2022-08-20T09:55:30;13.70;;;5.80;;
44987;SDS011;35735;52.226;21.254;2022-08-20T10:00:36;12.63;;;5.50;;
44987;SDS011;35735;52.226;21.254;2022-08-20T10:05:36;12.00;;;5.50;;
44987;SDS011;35735;52.226;21.254;2022-08-20T10:10:37;13.43;;;5.50;;
44987;SDS011;35735;52.226;21.254;2022-08-20T10:15:38;7.78;;;4.93;;
44987;SDS011;35735;52.226;21.254;2022-08-20T10:20:39;8.37;;;5.00;;
44987;SDS011;35735;52.226;21.254;2022-08-20T10:25:40;13.27;;;5.15;;
44987;SDS011;35735;52.226;21.254;2022-08-20T10:30:42;9.15;;;5.07;;
44987;SDS011;35735;52.226;21.254;2022-08-20T10:35:42;12.15;;;5.10;;
44987;SDS011;35735;52.226;21.254;2022-08-20T10:40:43;8.45;;;4.65;;
44987;SDS011;35735;52.226;21.254;2022-08-20T10:45:44;10.02;;;4.65;;
44987;SDS011;35735;52.226;21.254;2022-08-20T10:50:44;11.63;;;5.15;;
44987;SDS011;35735;52.226;21.254;2022-08-20T10:55:45;6.93;;;4.93;;
44987;SDS011;35735;52.226;21.254;2022-08-20T11:00:46;16.08;;;5.60;;
44987;SDS011;35735;52.226;21.254;2022-08-20T11:05:46;17.60;;;5.93;;
44987;SDS011;35735;52.226;21.254;2022-08-20T11:10:47;9.85;;;5.03;;
44987;SDS011;35735;52.226;21.254;2022-08-20T11:15:48;8.05;;;4.70;;
44987;SDS011;35735;52.226;21.254;2022-08-20T11:20:48;9.63;;;5.40;;
44987;SDS011;35735;52.226;21.254;2022-08-20T11:25:49;13.20;;;4.80;;
44987;SDS011;35735;52.226;21.254;2022-08-20T11:30:51;11.70;;;5.07;;
44987;SDS011;35735;52.226;21.254;2022-08-20T11:35:51;9.50;;;4.95;;
44987;SDS011;35735;52.226;21.254;2022-08-20T11:40:52;15.80;;;5.70;;
44987;SDS011;35735;52.226;21.254;2022-08-20T11:45:53;11.12;;;5.03;;
44987;SDS011;35735;52.226;21.254;2022-08-20T11:50:55;8.55;;;4.18;;
44987;SDS011;35735;52.226;21.254;2022-08-20T11:55:55;8.65;;;4.75;;
44987;SDS011;35735;52.226;21.254;2022-08-20T12:00:56;12.65;;;5.72;;
44987;SDS011;35735;52.226;21.254;2022-08-20T12:05:57;8.07;;;5.28;;
44987;SDS011;35735;52.226;21.254;2022-08-20T12:10:59;11.82;;;4.55;;
44987;SDS011;35735;52.226;21.254;2022-08-20T12:16:01;6.85;;;4.35;;
44987;SDS011;35735;52.226;21.254;2022-08-20T12:21:02;8.10;;;4.62;;
44987;SDS011;35735;52.226;21.254;2022-08-20T12:26:02;14.25;;;5.57;;
44987;SDS011;35735;52.226;21.254;2022-08-20T12:31:03;10.07;;;5.10;;
44987;SDS011;35735;52.226;21.254;2022-08-20T12:36:04;10.10;;;5.65;;
44987;SDS011;35735;52.226;21.254;2022-08-20T12:41:05;9.65;;;4.93;;
44987;SDS011;35735;52.226;21.254;2022-08-20T12:46:05;9.48;;;5.55;;
44987;SDS011;35735;52.226;21.254;2022-08-20T12:51:06;7.15;;;5.03;;
44987;SDS011;35735;52.226;21.254;2022-08-20T12:56:07;11.85;;;5.35;;
44987;SDS011;35735;52.226;21.254;2022-08-20T13:01:07;10.20;;;5.35;;
44987;SDS011;35735;52.226;21.254;2022-08-20T13:06:08;12.25;;;5.70;;
44987;SDS011;35735;52.226;21.254;2022-08-20T13:11:08;9.55;;;5.90;;
44987;SDS011;35735;52.226;21.254;2022-08-20T13:16:09;12.70;;;5.32;;
44987;SDS011;35735;52.226;21.254;2022-08-20T13:21:12;10.23;;;4.80;;
44987;SDS011;35735;52.226;21.254;2022-08-20T13:26:13;13.32;;;5.68;;
44987;SDS011;35735;52.226;21.254;2022-08-20T13:31:13;11.73;;;4.80;;
44987;SDS011;35735;52.226;21.254;2022-08-20T13:36:14;11.70;;;4.93;;
44987;SDS011;35735;52.226;21.254;2022-08-20T13:41:14;9.82;;;4.80;;
44987;SDS011;35735;52.226;21.254;2022-08-20T13:46:15;7.35;;;4.80;;
44987;SDS011;35735;52.226;21.254;2022-08-20T13:51:16;10.13;;;5.25;;
44987;SDS011;35735;52.226;21.254;2022-08-20T13:56:16;8.95;;;5.20;;
44987;SDS011;35735;52.226;21.254;2022-08-20T14:01:17;10.32;;;4.87;;
44987;SDS011;35735;52.226;21.254;2022-08-20T14:06:17;8.73;;;5.10;;
44987;SDS011;35735;52.226;21.254;2022-08-20T14:11:18;7.22;;;5.10;;
44987;SDS011;35735;52.226;21.254;2022-08-20T14:16:18;9.07;;;5.03;;
44987;SDS011;35735;52.226;21.254;2022-08-20T14:21:19;7.53;;;5.18;;
44987;SDS011;35735;52.226;21.254;2022-08-20T14:26:19;10.32;;;5.30;;
44987;SDS011;35735;52.226;21.254;2022-08-20T14:31:20;10.93;;;5.25;;
44987;SDS011;35735;52.226;21.254;2022-08-20T14:36:20;10.90;;;5.32;;
44987;SDS011;35735;52.226;21.254;2022-08-20T14:41:21;8.90;;;4.95;;
44987;SDS011;35735;52.226;21.254;2022-08-20T14:46:22;9.05;;;5.10;;
44987;SDS011;35735;52.226;21.254;2022-08-20T14:51:22;8.10;;;4.65;;
44987;SDS011;35735;52.226;21.254;2022-08-20T14:56:23;9.85;;;4.90;;
44987;SDS011;35735;52.226;21.254;2022-08-20T15:01:23;12.23;;;5.22;;
44987;SDS011;35735;52.226;21.254;2022-08-20T15:06:24;11.88;;;5.00;;
44987;SDS011;35735;52.226;21.254;2022-08-20T15:11:24;11.57;;;4.62;;
44987;SDS011;35735;52.226;21.254;2022-08-20T15:16:25;9.52;;;4.72;;
44987;SDS011;35735;52.226;21.254;2022-08-20T15:21:26;10.60;;;4.57;;
44987;SDS011;35735;52.226;21.254;2022-08-20T15:26:27;8.07;;;4.97;;
44987;SDS011;35735;52.226;21.254;2022-08-20T15:31:27;11.93;;;5.20;;
44987;SDS011;35735;52.226;21.254;2022-08-20T15:36:28;7.45;;;4.40;;
44987;SDS011;35735;52.226;21.254;2022-08-20T15:41:29;15.60;;;5.10;;
44987;SDS011;35735;52.226;21.254;2022-08-20T15:46:30;10.02;;;4.75;;
44987;SDS011;35735;52.226;21.254;2022-08-20T15:51:34;8.43;;;5.03;;
44987;SDS011;35735;52.226;21.254;2022-08-20T15:56:55;10.40;;;5.10;;
44987;SDS011;35735;52.226;21.254;2022-08-20T16:13:56;13.62;;;6.35;;
44987;SDS011;35735;52.226;21.254;2022-08-20T16:19:24;7.68;;;4.70;;
44987;SDS011;35735;52.226;21.254;2022-08-20T16:24:30;8.85;;;5.25;;
44987;SDS011;35735;52.226;21.254;2022-08-20T16:35:02;8.77;;;4.93;;
44987;SDS011;35735;52.226;21.254;2022-08-20T16:40:38;10.40;;;4.80;;
44987;SDS011;35735;52.226;21.254;2022-08-20T16:45:50;13.88;;;5.40;;
44987;SDS011;35735;52.226;21.254;2022-08-20T16:51:02;8.32;;;5.20;;
44987;SDS011;35735;52.226;21.254;2022-08-20T16:56:08;7.55;;;4.87;;
44987;SDS011;35735;52.226;21.254;2022-08-20T17:01:10;9.10;;;4.90;;
44987;SDS011;35735;52.226;21.254;2022-08-20T17:06:15;11.57;;;5.25;;
44987;SDS011;35735;52.226;21.254;2022-08-20T17:11:35;8.02;;;4.85;;
44987;SDS011;35735;52.226;21.254;2022-08-20T17:16:42;10.77;;;5.00;;
44987;SDS011;35735;52.226;21.254;2022-08-20T17:21:51;9.43;;;4.60;;
44987;SDS011;35735;52.226;21.254;2022-08-20T17:27:04;10.98;;;5.00;;
44987;SDS011;35735;52.226;21.254;2022-08-20T17:32:20;9.48;;;4.82;;
44987;SDS011;35735;52.226;21.254;2022-08-20T17:37:25;8.18;;;4.93;;
44987;SDS011;35735;52.226;21.254;2022-08-20T17:47:47;5.75;;;4.82;;
44987;SDS011;35735;52.226;21.254;2022-08-20T17:52:50;11.93;;;4.93;;
44987;SDS011;35735;52.226;21.254;2022-08-20T17:57:55;7.43;;;5.05;;
44987;SDS011;35735;52.226;21.254;2022-08-20T18:03:08;5.95;;;4.80;;
44987;SDS011;35735;52.226;21.254;2022-08-20T18:08:24;12.73;;;5.80;;
44987;SDS011;35735;52.226;21.254;2022-08-20T18:13:40;12.68;;;5.60;;
44987;SDS011;35735;52.226;21.254;2022-08-20T18:25:33;6.90;;;4.12;;
44987;SDS011;35735;52.226;21.254;2022-08-20T18:30:49;8.68;;;4.43;;
44987;SDS011;35735;52.226;21.254;2022-08-20T18:36:04;9.75;;;4.25;;
44987;SDS011;35735;52.226;21.254;2022-08-20T18:46:49;6.03;;;4.00;;
44987;SDS011;35735;52.226;21.254;2022-08-20T18:57:51;6.90;;;4.45;;
44987;SDS011;35735;52.226;21.254;2022-08-20T19:02:56;8.98;;;4.37;;
44987;SDS011;35735;52.226;21.254;2022-08-20T19:08:06;6.37;;;4.50;;
44987;SDS011;35735;52.226;21.254;2022-08-20T19:13:14;6.50;;;4.22;;
44987;SDS011;35735;52.226;21.254;2022-08-20T19:18:51;5.53;;;4.30;;
44987;SDS011;35735;52.226;21.254;2022-08-20T19:23:55;11.20;;;4.20;;
44987;SDS011;35735;52.226;21.254;2022-08-20T19:29:07;7.32;;;4.53;;
44987;SDS011;35735;52.226;21.254;2022-08-20T19:34:19;6.45;;;5.03;;
44987;SDS011;35735;52.226;21.254;2022-08-20T19:39:22;13.85;;;5.25;;
44987;SDS011;35735;52.226;21.254;2022-08-20T19:44:28;28.00;;;6.40;;
44987;SDS011;35735;52.226;21.254;2022-08-20T19:54:57;19.00;;;5.57;;
44987;SDS011;35735;52.226;21.254;2022-08-20T19:59:59;8.70;;;4.87;;
44987;SDS011;35735;52.226;21.254;2022-08-20T20:05:08;6.47;;;4.80;;
44987;SDS011;35735;52.226;21.254;2022-08-20T20:10:15;9.38;;;4.60;;
44987;SDS011;35735;52.226;21.254;2022-08-20T20:15:30;7.60;;;4.87;;
44987;SDS011;35735;52.226;21.254;2022-08-20T20:20:31;7.62;;;4.37;;
44987;SDS011;35735;52.226;21.254;2022-08-20T20:25:37;7.62;;;5.00;;
44987;SDS011;35735;52.226;21.254;2022-08-20T20:30:43;5.95;;;4.55;;
44987;SDS011;35735;52.226;21.254;2022-08-20T20:35:44;5.80;;;4.68;;
44987;SDS011;35735;52.226;21.254;2022-08-20T20:40:46;6.53;;;4.20;;
44987;SDS011;35735;52.226;21.254;2022-08-20T20:51:25;9.15;;;4.72;;
44987;SDS011;35735;52.226;21.254;2022-08-20T20:56:41;5.18;;;4.68;;
44987;SDS011;35735;52.226;21.254;2022-08-20T21:01:42;8.25;;;4.18;;
44987;SDS011;35735;52.226;21.254;2022-08-20T21:06:43;9.32;;;4.55;;
44987;SDS011;35735;52.226;21.254;2022-08-20T21:11:44;7.90;;;4.50;;
44987;SDS011;35735;52.226;21.254;2022-08-20T21:16:45;7.62;;;4.50;;
44987;SDS011;35735;52.226;21.254;2022-08-20T21:21:46;7.70;;;4.30;;
44987;SDS011;35735;52.226;21.254;2022-08-20T21:26:48;6.22;;;4.30;;
44987;SDS011;35735;52.226;21.254;2022-08-20T21:31:49;10.32;;;4.75;;
44987;SDS011;35735;52.226;21.254;2022-08-20T21:36:50;6.15;;;4.55;;
44987;SDS011;35735;52.226;21.254;2022-08-20T21:41:59;5.97;;;4.53;;
44987;SDS011;35735;52.226;21.254;2022-08-20T21:47:02;6.72;;;4.57;;
44987;SDS011;35735;52.226;21.254;2022-08-20T21:52:03;8.30;;;5.12;;
44987;SDS011;35735;52.226;21.254;2022-08-20T21:57:05;10.10;;;4.97;;
44987;SDS011;35735;52.226;21.254;2022-08-20T22:02:19;8.90;;;4.70;;
44987;SDS011;35735;52.226;21.254;2022-08-20T22:07:20;6.82;;;4.47;;
44987;SDS011;35735;52.226;21.254;2022-08-20T22:12:22;5.45;;;4.50;;
44987;SDS011;35735;52.226;21.254;2022-08-20T22:17:23;8.05;;;4.57;;
44987;SDS011;35735;52.226;21.254;2022-08-20T22:22:24;9.57;;;5.10;;
44987;SDS011;35735;52.226;21.254;2022-08-20T22:27:24;7.10;;;4.55;;
44987;SDS011;35735;52.226;21.254;2022-08-20T22:32:25;7.45;;;4.82;;
44987;SDS011;35735;52.226;21.254;2022-08-20T22:37:27;9.18;;;4.82;;
44987;SDS011;35735;52.226;21.254;2022-08-20T22:42:30;7.43;;;5.00;;
44987;SDS011;35735;52.226;21.254;2022-08-20T22:47:31;7.43;;;4.85;;
44987;SDS011;35735;52.226;21.254;2022-08-20T22:52:32;8.52;;;4.37;;
44987;SDS011;35735;52.226;21.254;2022-08-20T22:57:35;8.32;;;4.57;;
44987;SDS011;35735;52.226;21.254;2022-08-20T23:02:38;9.52;;;4.70;;
44987;SDS011;35735;52.226;21.254;2022-08-20T23:07:40;5.93;;;4.75;;
44987;SDS011;35735;52.226;21.254;2022-08-20T23:12:41;8.73;;;4.60;;
44987;SDS011;35735;52.226;21.254;2022-08-20T23:17:41;6.03;;;4.43;;
44987;SDS011;35735;52.226;21.254;2022-08-20T23:22:42;6.62;;;4.55;;
44987;SDS011;35735;52.226;21.254;2022-08-20T23:27:45;7.47;;;5.00;;
44987;SDS011;35735;52.226;21.254;2022-08-20T23:32:48;5.10;;;4.60;;
44987;SDS011;35735;52.226;21.254;2022-08-20T23:37:50;4.97;;;4.47;;
44987;SDS011;35735;52.226;21.254;2022-08-20T23:42:54;8.88;;;4.87;;
44987;SDS011;35735;52.226;21.254;2022-08-20T23:47:55;7.40;;;5.03;;
44987;SDS011;35735;52.226;21.254;2022-08-20T23:52:56;9.00;;;5.03;;
44987;SDS011;35735;52.226;21.254;2022-08-20T23:57:57;7.15;;;5.12;;
